sensor_id;sensor_type;location;lat;lon;timestamp;temperature;humidity
46490;DHT22;32204;49.160;8.580;2024-03-06T00:01:41;8.60;1.00
46490;DHT22;32204;49.160;8.580;2024-03-06T00:04:07;8.60;1.00
46490;DHT22;32204;49.160;8.580;2024-03-06T00:06:32;8.60;1.00
46490;DHT22;32204;49.160;8.580;2024-03-06T00:08:59;8.50;1.00
46490;DHT22;32204;49.160;8.580;2024-03-06T00:11:24;8.50;1.00
46490;DHT22;32204;49.160;8.580;2024-03-06T00:13:50;8.60;1.00
46490;DHT22;32204;49.160;8.580;2024-03-06T00:16:16;8.60;1.00
46490;DHT22;32204;49.160;8.580;2024-03-06T00:18:42;8.60;1.00
46490;DHT22;32204;49.160;8.580;2024-03-06T00:21:08;8.60;1.00
46490;DHT22;32204;49.160;8.580;2024-03-06T00:23:35;8.50;1.00
46490;DHT22;32204;49.160;8.580;2024-03-06T00:26:02;8.50;99.90
46490;DHT22;32204;49.160;8.580;2024-03-06T00:28:28;8.40;1.00
46490;DHT22;32204;49.160;8.580;2024-03-06T00:30:54;8.40;14.90
46490;DHT22;32204;49.160;8.580;2024-03-06T00:33:19;8.40;1.00
46490;DHT22;32204;49.160;8.580;2024-03-06T00:35:45;8.30;99.90
46490;DHT22;32204;49.160;8.580;2024-03-06T00:38:10;8.20;99.90
46490;DHT22;32204;49.160;8.580;2024-03-06T00:40:36;8.20;99.90
46490;DHT22;32204;49.160;8.580;2024-03-06T00:43:02;8.20;99.90
46490;DHT22;32204;49.160;8.580;2024-03-06T00:45:27;8.10;99.90
46490;DHT22;32204;49.160;8.580;2024-03-06T00:47:53;8.10;1.00
46490;DHT22;32204;49.160;8.580;2024-03-06T00:50:19;8.00;1.00
46490;DHT22;32204;49.160;8.580;2024-03-06T00:52:47;8.00;1.00
46490;DHT22;32204;49.160;8.580;2024-03-06T00:55:14;8.00;1.00
46490;DHT22;32204;49.160;8.580;2024-03-06T00:57:39;8.00;1.00
46490;DHT22;32204;49.160;8.580;2024-03-06T01:00:07;8.00;99.90
46490;DHT22;32204;49.160;8.580;2024-03-06T01:02:39;8.00;1.00
46490;DHT22;32204;49.160;8.580;2024-03-06T01:05:06;8.00;1.00
46490;DHT22;32204;49.160;8.580;2024-03-06T01:07:33;8.00;99.90
46490;DHT22;32204;49.160;8.580;2024-03-06T01:10:00;8.10;71.60
46490;DHT22;32204;49.160;8.580;2024-03-06T01:12:26;8.10;1.00
46490;DHT22;32204;49.160;8.580;2024-03-06T01:14:52;8.10;1.00
46490;DHT22;32204;49.160;8.580;2024-03-06T01:17:18;8.30;1.00
46490;DHT22;32204;49.160;8.580;2024-03-06T01:19:44;8.30;99.90
46490;DHT22;32204;49.160;8.580;2024-03-06T01:22:10;8.40;99.90
46490;DHT22;32204;49.160;8.580;2024-03-06T01:24:36;8.40;99.90
46490;DHT22;32204;49.160;8.580;2024-03-06T01:27:02;8.30;9.40
46490;DHT22;32204;49.160;8.580;2024-03-06T01:29:28;8.20;99.90
46490;DHT22;32204;49.160;8.580;2024-03-06T01:31:54;8.10;99.90
46490;DHT22;32204;49.160;8.580;2024-03-06T01:34:20;8.00;1.00
46490;DHT22;32204;49.160;8.580;2024-03-06T01:36:46;8.10;1.00
46490;DHT22;32204;49.160;8.580;2024-03-06T01:39:11;8.20;1.00
46490;DHT22;32204;49.160;8.580;2024-03-06T01:41:37;8.30;99.90
46490;DHT22;32204;49.160;8.580;2024-03-06T01:44:03;8.30;99.90
46490;DHT22;32204;49.160;8.580;2024-03-06T01:46:29;8.30;12.20
46490;DHT22;32204;49.160;8.580;2024-03-06T01:48:55;8.30;19.40
46490;DHT22;32204;49.160;8.580;2024-03-06T01:51:21;8.30;60.60
46490;DHT22;32204;49.160;8.580;2024-03-06T01:53:47;8.30;99.90
46490;DHT22;32204;49.160;8.580;2024-03-06T01:56:13;8.30;99.90
46490;DHT22;32204;49.160;8.580;2024-03-06T01:58:43;8.30;99.90
46490;DHT22;32204;49.160;8.580;2024-03-06T02:01:11;8.40;99.90
46490;DHT22;32204;49.160;8.580;2024-03-06T02:03:37;8.40;99.90
46490;DHT22;32204;49.160;8.580;2024-03-06T02:06:03;8.40;1.00
46490;DHT22;32204;49.160;8.580;2024-03-06T02:08:30;8.30;1.00
46490;DHT22;32204;49.160;8.580;2024-03-06T02:10:56;8.30;99.90
46490;DHT22;32204;49.160;8.580;2024-03-06T02:13:21;8.20;3.30
46490;DHT22;32204;49.160;8.580;2024-03-06T02:15:48;8.20;99.90
46490;DHT22;32204;49.160;8.580;2024-03-06T02:18:14;8.20;99.90
46490;DHT22;32204;49.160;8.580;2024-03-06T02:20:40;8.20;99.90
46490;DHT22;32204;49.160;8.580;2024-03-06T02:23:06;8.10;57.40
46490;DHT22;32204;49.160;8.580;2024-03-06T02:25:32;8.10;99.90
46490;DHT22;32204;49.160;8.580;2024-03-06T02:27:58;8.00;99.90
46490;DHT22;32204;49.160;8.580;2024-03-06T02:30:24;8.00;99.90
46490;DHT22;32204;49.160;8.580;2024-03-06T02:32:50;8.00;99.90
46490;DHT22;32204;49.160;8.580;2024-03-06T02:35:16;7.90;1.00
46490;DHT22;32204;49.160;8.580;2024-03-06T02:37:43;7.90;4.00
46490;DHT22;32204;49.160;8.580;2024-03-06T02:40:12;8.00;50.90
46490;DHT22;32204;49.160;8.580;2024-03-06T02:42:38;8.10;1.00
46490;DHT22;32204;49.160;8.580;2024-03-06T02:45:05;8.10;99.90
46490;DHT22;32204;49.160;8.580;2024-03-06T02:47:31;8.20;99.90
46490;DHT22;32204;49.160;8.580;2024-03-06T02:49:57;8.20;99.90
46490;DHT22;32204;49.160;8.580;2024-03-06T02:52:23;8.10;99.90
46490;DHT22;32204;49.160;8.580;2024-03-06T02:54:48;8.10;99.90
46490;DHT22;32204;49.160;8.580;2024-03-06T02:57:14;8.10;99.90
46490;DHT22;32204;49.160;8.580;2024-03-06T02:59:40;8.00;99.90
46490;DHT22;32204;49.160;8.580;2024-03-06T03:02:06;8.00;1.00
46490;DHT22;32204;49.160;8.580;2024-03-06T03:04:31;8.00;1.00
46490;DHT22;32204;49.160;8.580;2024-03-06T03:06:57;7.90;1.00
46490;DHT22;32204;49.160;8.580;2024-03-06T03:09:23;7.90;1.00
46490;DHT22;32204;49.160;8.580;2024-03-06T03:11:49;7.90;1.00
46490;DHT22;32204;49.160;8.580;2024-03-06T03:14:14;7.90;10.10
46490;DHT22;32204;49.160;8.580;2024-03-06T03:16:40;7.90;1.00
46490;DHT22;32204;49.160;8.580;2024-03-06T03:19:07;7.90;1.00
46490;DHT22;32204;49.160;8.580;2024-03-06T03:21:34;8.00;1.00
46490;DHT22;32204;49.160;8.580;2024-03-06T03:23:59;8.00;1.00
46490;DHT22;32204;49.160;8.580;2024-03-06T03:26:25;8.00;1.00
46490;DHT22;32204;49.160;8.580;2024-03-06T03:28:51;8.00;1.00
46490;DHT22;32204;49.160;8.580;2024-03-06T03:31:16;8.00;1.00
46490;DHT22;32204;49.160;8.580;2024-03-06T03:33:42;8.00;10.50
46490;DHT22;32204;49.160;8.580;2024-03-06T03:36:08;8.00;99.90
46490;DHT22;32204;49.160;8.580;2024-03-06T03:38:38;8.00;1.00
46490;DHT22;32204;49.160;8.580;2024-03-06T03:41:12;8.00;1.00
46490;DHT22;32204;49.160;8.580;2024-03-06T03:43:41;8.10;1.00
46490;DHT22;32204;49.160;8.580;2024-03-06T03:46:07;8.10;1.00
46490;DHT22;32204;49.160;8.580;2024-03-06T03:48:34;8.10;1.00
46490;DHT22;32204;49.160;8.580;2024-03-06T03:51:03;8.10;99.90
46490;DHT22;32204;49.160;8.580;2024-03-06T03:53:33;8.20;1.00
46490;DHT22;32204;49.160;8.580;2024-03-06T03:55:59;8.10;99.90
46490;DHT22;32204;49.160;8.580;2024-03-06T03:58:25;8.10;99.90
46490;DHT22;32204;49.160;8.580;2024-03-06T04:00:50;8.10;1.00
46490;DHT22;32204;49.160;8.580;2024-03-06T04:03:20;8.20;99.90
46490;DHT22;32204;49.160;8.580;2024-03-06T04:05:49;8.20;99.90
46490;DHT22;32204;49.160;8.580;2024-03-06T04:08:15;8.20;99.90
46490;DHT22;32204;49.160;8.580;2024-03-06T04:10:44;8.20;99.90
46490;DHT22;32204;49.160;8.580;2024-03-06T04:13:14;8.10;1.00
46490;DHT22;32204;49.160;8.580;2024-03-06T04:15:40;8.00;1.00
46490;DHT22;32204;49.160;8.580;2024-03-06T04:18:06;8.00;1.00
46490;DHT22;32204;49.160;8.580;2024-03-06T04:20:31;7.90;1.00
46490;DHT22;32204;49.160;8.580;2024-03-06T04:22:57;7.80;1.00
46490;DHT22;32204;49.160;8.580;2024-03-06T04:25:22;7.80;99.90
46490;DHT22;32204;49.160;8.580;2024-03-06T04:27:49;7.70;99.90
46490;DHT22;32204;49.160;8.580;2024-03-06T04:30:14;7.70;1.00
46490;DHT22;32204;49.160;8.580;2024-03-06T04:32:40;7.70;1.00
46490;DHT22;32204;49.160;8.580;2024-03-06T04:35:06;7.80;25.20
46490;DHT22;32204;49.160;8.580;2024-03-06T04:37:32;7.80;1.00
46490;DHT22;32204;49.160;8.580;2024-03-06T04:39:58;7.80;1.00
46490;DHT22;32204;49.160;8.580;2024-03-06T04:42:24;7.80;1.00
46490;DHT22;32204;49.160;8.580;2024-03-06T04:44:50;7.70;1.00
46490;DHT22;32204;49.160;8.580;2024-03-06T04:47:15;7.70;1.00
46490;DHT22;32204;49.160;8.580;2024-03-06T04:49:41;7.80;15.30
46490;DHT22;32204;49.160;8.580;2024-03-06T04:52:10;7.80;29.50
46490;DHT22;32204;49.160;8.580;2024-03-06T04:54:36;7.80;27.10
46490;DHT22;32204;49.160;8.580;2024-03-06T04:57:02;7.70;1.00
46490;DHT22;32204;49.160;8.580;2024-03-06T04:59:28;7.70;99.90
46490;DHT22;32204;49.160;8.580;2024-03-06T05:01:53;7.80;30.00
46490;DHT22;32204;49.160;8.580;2024-03-06T05:04:19;7.90;6.70
46490;DHT22;32204;49.160;8.580;2024-03-06T05:06:44;7.80;1.00
46490;DHT22;32204;49.160;8.580;2024-03-06T05:09:10;7.80;1.00
46490;DHT22;32204;49.160;8.580;2024-03-06T05:11:37;7.90;1.00
46490;DHT22;32204;49.160;8.580;2024-03-06T05:14:04;7.80;1.00
46490;DHT22;32204;49.160;8.580;2024-03-06T05:16:29;7.80;1.00
46490;DHT22;32204;49.160;8.580;2024-03-06T05:18:55;7.80;1.00
46490;DHT22;32204;49.160;8.580;2024-03-06T05:21:24;7.80;11.70
46490;DHT22;32204;49.160;8.580;2024-03-06T05:23:50;7.90;20.40
46490;DHT22;32204;49.160;8.580;2024-03-06T05:26:15;7.80;1.00
46490;DHT22;32204;49.160;8.580;2024-03-06T05:28:41;7.80;1.00
46490;DHT22;32204;49.160;8.580;2024-03-06T05:31:17;7.80;99.90
46490;DHT22;32204;49.160;8.580;2024-03-06T05:33:48;7.70;1.00
46490;DHT22;32204;49.160;8.580;2024-03-06T05:36:15;7.80;37.20
46490;DHT22;32204;49.160;8.580;2024-03-06T05:38:41;7.80;10.80
46490;DHT22;32204;49.160;8.580;2024-03-06T05:41:07;7.80;85.80
46490;DHT22;32204;49.160;8.580;2024-03-06T05:43:34;7.80;35.80
46490;DHT22;32204;49.160;8.580;2024-03-06T05:45:59;7.90;1.00
46490;DHT22;32204;49.160;8.580;2024-03-06T05:48:26;7.80;1.00
46490;DHT22;32204;49.160;8.580;2024-03-06T05:50:53;7.80;1.00
46490;DHT22;32204;49.160;8.580;2024-03-06T05:53:18;7.80;1.00
46490;DHT22;32204;49.160;8.580;2024-03-06T05:55:44;7.70;15.70
46490;DHT22;32204;49.160;8.580;2024-03-06T05:58:09;7.60;99.90
46490;DHT22;32204;49.160;8.580;2024-03-06T06:00:35;7.70;99.90
46490;DHT22;32204;49.160;8.580;2024-03-06T06:03:01;7.60;99.90
46490;DHT22;32204;49.160;8.580;2024-03-06T06:05:26;7.60;99.90
46490;DHT22;32204;49.160;8.580;2024-03-06T06:07:52;7.50;99.90
46490;DHT22;32204;49.160;8.580;2024-03-06T06:10:18;7.50;99.90
46490;DHT22;32204;49.160;8.580;2024-03-06T06:12:44;7.50;1.00
46490;DHT22;32204;49.160;8.580;2024-03-06T06:15:10;7.50;1.00
46490;DHT22;32204;49.160;8.580;2024-03-06T06:17:36;7.50;1.00
46490;DHT22;32204;49.160;8.580;2024-03-06T06:20:05;7.50;1.00
46490;DHT22;32204;49.160;8.580;2024-03-06T06:22:36;7.50;1.00
46490;DHT22;32204;49.160;8.580;2024-03-06T06:25:01;7.50;1.00
46490;DHT22;32204;49.160;8.580;2024-03-06T06:27:28;7.60;1.00
46490;DHT22;32204;49.160;8.580;2024-03-06T06:29:54;7.60;1.00
46490;DHT22;32204;49.160;8.580;2024-03-06T06:32:20;7.60;1.00
46490;DHT22;32204;49.160;8.580;2024-03-06T06:34:46;7.60;1.00
46490;DHT22;32204;49.160;8.580;2024-03-06T06:37:12;7.60;1.00
46490;DHT22;32204;49.160;8.580;2024-03-06T06:39:37;7.70;1.00
46490;DHT22;32204;49.160;8.580;2024-03-06T06:42:03;7.70;1.00
46490;DHT22;32204;49.160;8.580;2024-03-06T06:44:29;7.60;1.00
46490;DHT22;32204;49.160;8.580;2024-03-06T06:46:55;7.60;1.00
46490;DHT22;32204;49.160;8.580;2024-03-06T06:49:21;7.50;1.00
46490;DHT22;32204;49.160;8.580;2024-03-06T06:51:47;7.50;40.10
46490;DHT22;32204;49.160;8.580;2024-03-06T06:54:14;7.50;63.20
46490;DHT22;32204;49.160;8.580;2024-03-06T06:56:40;7.60;99.90
46490;DHT22;32204;49.160;8.580;2024-03-06T06:59:06;7.60;99.90
46490;DHT22;32204;49.160;8.580;2024-03-06T07:01:31;7.60;99.90
46490;DHT22;32204;49.160;8.580;2024-03-06T07:03:58;7.60;99.90
46490;DHT22;32204;49.160;8.580;2024-03-06T07:06:24;7.70;99.90
46490;DHT22;32204;49.160;8.580;2024-03-06T07:08:50;7.70;99.60
46490;DHT22;32204;49.160;8.580;2024-03-06T07:11:17;7.70;99.90
46490;DHT22;32204;49.160;8.580;2024-03-06T07:13:43;7.70;99.90
46490;DHT22;32204;49.160;8.580;2024-03-06T07:16:12;7.80;98.20
46490;DHT22;32204;49.160;8.580;2024-03-06T07:18:37;7.80;71.20
46490;DHT22;32204;49.160;8.580;2024-03-06T07:21:03;7.80;88.30
46490;DHT22;32204;49.160;8.580;2024-03-06T07:23:28;7.80;90.70
46490;DHT22;32204;49.160;8.580;2024-03-06T07:25:56;8.00;99.90
46490;DHT22;32204;49.160;8.580;2024-03-06T07:28:23;8.00;53.40
46490;DHT22;32204;49.160;8.580;2024-03-06T07:30:48;8.10;46.80
46490;DHT22;32204;49.160;8.580;2024-03-06T07:33:14;8.00;1.00
46490;DHT22;32204;49.160;8.580;2024-03-06T07:35:39;8.10;40.20
46490;DHT22;32204;49.160;8.580;2024-03-06T07:38:05;8.00;18.00
46490;DHT22;32204;49.160;8.580;2024-03-06T07:40:31;8.00;79.00
46490;DHT22;32204;49.160;8.580;2024-03-06T07:42:57;8.00;80.40
46490;DHT22;32204;49.160;8.580;2024-03-06T07:45:25;8.00;33.90
46490;DHT22;32204;49.160;8.580;2024-03-06T07:47:51;8.00;11.80
46490;DHT22;32204;49.160;8.580;2024-03-06T07:50:16;8.00;88.00
46490;DHT22;32204;49.160;8.580;2024-03-06T07:52:45;8.00;5.60
46490;DHT22;32204;49.160;8.580;2024-03-06T07:55:11;8.00;32.60
46490;DHT22;32204;49.160;8.580;2024-03-06T07:57:37;8.00;99.90
46490;DHT22;32204;49.160;8.580;2024-03-06T08:00:04;8.00;44.40
46490;DHT22;32204;49.160;8.580;2024-03-06T08:02:42;8.00;33.30
46490;DHT22;32204;49.160;8.580;2024-03-06T08:05:10;8.10;54.40
46490;DHT22;32204;49.160;8.580;2024-03-06T08:07:40;8.10;29.70
46490;DHT22;32204;49.160;8.580;2024-03-06T08:10:12;8.20;1.00
46490;DHT22;32204;49.160;8.580;2024-03-06T08:12:43;8.30;1.00
46490;DHT22;32204;49.160;8.580;2024-03-06T08:15:13;8.40;1.00
46490;DHT22;32204;49.160;8.580;2024-03-06T08:17:41;8.40;1.00
46490;DHT22;32204;49.160;8.580;2024-03-06T08:20:10;8.40;1.00
46490;DHT22;32204;49.160;8.580;2024-03-06T08:22:38;8.60;1.00
46490;DHT22;32204;49.160;8.580;2024-03-06T08:25:10;8.70;1.00
46490;DHT22;32204;49.160;8.580;2024-03-06T08:27:39;8.80;1.00
46490;DHT22;32204;49.160;8.580;2024-03-06T08:30:05;8.80;1.00
46490;DHT22;32204;49.160;8.580;2024-03-06T08:32:32;8.80;99.90
46490;DHT22;32204;49.160;8.580;2024-03-06T08:35:10;8.90;1.00
46490;DHT22;32204;49.160;8.580;2024-03-06T08:37:39;9.00;1.00
46490;DHT22;32204;49.160;8.580;2024-03-06T08:40:06;9.10;1.00
46490;DHT22;32204;49.160;8.580;2024-03-06T08:42:40;9.10;99.90
46490;DHT22;32204;49.160;8.580;2024-03-06T08:45:07;9.00;99.90
46490;DHT22;32204;49.160;8.580;2024-03-06T08:47:36;9.00;99.90
46490;DHT22;32204;49.160;8.580;2024-03-06T08:50:02;8.90;99.90
46490;DHT22;32204;49.160;8.580;2024-03-06T08:52:29;8.80;99.90
46490;DHT22;32204;49.160;8.580;2024-03-06T08:54:56;8.80;1.00
46490;DHT22;32204;49.160;8.580;2024-03-06T08:57:22;8.80;99.90
46490;DHT22;32204;49.160;8.580;2024-03-06T08:59:47;8.80;99.90
46490;DHT22;32204;49.160;8.580;2024-03-06T09:02:14;8.90;99.90
46490;DHT22;32204;49.160;8.580;2024-03-06T09:04:41;9.00;99.90
46490;DHT22;32204;49.160;8.580;2024-03-06T09:07:07;9.20;51.50
46490;DHT22;32204;49.160;8.580;2024-03-06T09:09:33;9.30;99.90
46490;DHT22;32204;49.160;8.580;2024-03-06T09:12:00;9.20;1.00
46490;DHT22;32204;49.160;8.580;2024-03-06T09:14:26;9.30;99.90
46490;DHT22;32204;49.160;8.580;2024-03-06T09:16:51;9.40;1.00
46490;DHT22;32204;49.160;8.580;2024-03-06T09:19:17;9.30;36.90
46490;DHT22;32204;49.160;8.580;2024-03-06T09:21:42;9.30;99.90
46490;DHT22;32204;49.160;8.580;2024-03-06T09:24:08;9.40;99.90
46490;DHT22;32204;49.160;8.580;2024-03-06T09:26:34;9.50;1.00
46490;DHT22;32204;49.160;8.580;2024-03-06T09:29:00;9.50;99.90
46490;DHT22;32204;49.160;8.580;2024-03-06T09:31:26;9.50;99.90
46490;DHT22;32204;49.160;8.580;2024-03-06T09:33:53;9.50;1.00
46490;DHT22;32204;49.160;8.580;2024-03-06T09:36:18;9.50;99.90
46490;DHT22;32204;49.160;8.580;2024-03-06T09:38:44;9.60;30.30
46490;DHT22;32204;49.160;8.580;2024-03-06T09:41:10;9.50;1.00
46490;DHT22;32204;49.160;8.580;2024-03-06T09:43:35;9.70;99.90
46490;DHT22;32204;49.160;8.580;2024-03-06T09:46:01;9.70;99.90
46490;DHT22;32204;49.160;8.580;2024-03-06T09:48:28;9.50;99.90
46490;DHT22;32204;49.160;8.580;2024-03-06T09:51:00;9.50;1.00
46490;DHT22;32204;49.160;8.580;2024-03-06T09:53:26;9.60;1.00
46490;DHT22;32204;49.160;8.580;2024-03-06T09:55:52;9.70;1.00
46490;DHT22;32204;49.160;8.580;2024-03-06T09:58:18;9.90;1.00
46490;DHT22;32204;49.160;8.580;2024-03-06T10:00:46;9.90;99.90
46490;DHT22;32204;49.160;8.580;2024-03-06T10:03:13;10.00;1.00
46490;DHT22;32204;49.160;8.580;2024-03-06T10:05:39;9.90;99.90
46490;DHT22;32204;49.160;8.580;2024-03-06T10:08:05;9.80;44.30
46490;DHT22;32204;49.160;8.580;2024-03-06T10:10:31;9.90;1.00
46490;DHT22;32204;49.160;8.580;2024-03-06T10:12:57;9.90;18.60
46490;DHT22;32204;49.160;8.580;2024-03-06T10:15:25;9.90;1.00
46490;DHT22;32204;49.160;8.580;2024-03-06T10:17:52;9.90;99.90
46490;DHT22;32204;49.160;8.580;2024-03-06T10:20:24;9.80;99.90
46490;DHT22;32204;49.160;8.580;2024-03-06T10:22:51;9.90;1.00
46490;DHT22;32204;49.160;8.580;2024-03-06T10:25:21;9.90;1.00
46490;DHT22;32204;49.160;8.580;2024-03-06T10:28:07;9.90;99.90
46490;DHT22;32204;49.160;8.580;2024-03-06T10:30:38;9.80;10.40
46490;DHT22;32204;49.160;8.580;2024-03-06T10:33:08;9.90;99.90
46490;DHT22;32204;49.160;8.580;2024-03-06T10:35:35;9.90;99.90
46490;DHT22;32204;49.160;8.580;2024-03-06T10:38:05;9.80;1.00
46490;DHT22;32204;49.160;8.580;2024-03-06T10:40:33;10.00;1.00
46490;DHT22;32204;49.160;8.580;2024-03-06T10:43:00;9.90;99.90
46490;DHT22;32204;49.160;8.580;2024-03-06T10:45:49;10.00;1.00
46490;DHT22;32204;49.160;8.580;2024-03-06T10:48:19;9.90;1.00
46490;DHT22;32204;49.160;8.580;2024-03-06T10:50:46;10.00;1.00
46490;DHT22;32204;49.160;8.580;2024-03-06T10:53:14;10.00;99.90
46490;DHT22;32204;49.160;8.580;2024-03-06T10:55:42;10.00;99.90
46490;DHT22;32204;49.160;8.580;2024-03-06T10:58:10;10.00;1.00
46490;DHT22;32204;49.160;8.580;2024-03-06T11:00:40;10.10;99.90
46490;DHT22;32204;49.160;8.580;2024-03-06T11:03:07;10.20;99.90
46490;DHT22;32204;49.160;8.580;2024-03-06T11:05:45;10.10;99.90
46490;DHT22;32204;49.160;8.580;2024-03-06T11:08:13;10.10;99.90
46490;DHT22;32204;49.160;8.580;2024-03-06T11:10:42;10.10;19.80
46490;DHT22;32204;49.160;8.580;2024-03-06T11:15:46;10.40;1.00
46490;DHT22;32204;49.160;8.580;2024-03-06T11:23:28;10.50;99.90
46490;DHT22;32204;49.160;8.580;2024-03-06T11:28:27;10.50;99.90
46490;DHT22;32204;49.160;8.580;2024-03-06T11:33:43;10.50;3.10
46490;DHT22;32204;49.160;8.580;2024-03-06T11:36:21;10.50;99.90
46490;DHT22;32204;49.160;8.580;2024-03-06T11:41:27;10.70;1.00
46490;DHT22;32204;49.160;8.580;2024-03-06T11:43:54;10.50;1.00
46490;DHT22;32204;49.160;8.580;2024-03-06T11:46:22;10.50;99.90
46490;DHT22;32204;49.160;8.580;2024-03-06T11:48:55;10.60;99.90
46490;DHT22;32204;49.160;8.580;2024-03-06T11:51:22;10.70;99.90
46490;DHT22;32204;49.160;8.580;2024-03-06T11:53:52;10.70;99.90
46490;DHT22;32204;49.160;8.580;2024-03-06T11:56:20;10.70;99.90
46490;DHT22;32204;49.160;8.580;2024-03-06T11:58:46;10.70;99.90
46490;DHT22;32204;49.160;8.580;2024-03-06T12:01:12;10.80;99.90
46490;DHT22;32204;49.160;8.580;2024-03-06T12:03:39;10.90;99.90
46490;DHT22;32204;49.160;8.580;2024-03-06T12:06:05;10.90;99.90
46490;DHT22;32204;49.160;8.580;2024-03-06T12:08:31;10.80;1.00
46490;DHT22;32204;49.160;8.580;2024-03-06T12:10:56;10.90;1.00
46490;DHT22;32204;49.160;8.580;2024-03-06T12:13:24;10.80;1.00
46490;DHT22;32204;49.160;8.580;2024-03-06T12:15:50;10.80;99.90
46490;DHT22;32204;49.160;8.580;2024-03-06T12:18:17;10.90;99.90
46490;DHT22;32204;49.160;8.580;2024-03-06T12:20:44;11.00;1.00
46490;DHT22;32204;49.160;8.580;2024-03-06T12:23:21;11.10;99.90
46490;DHT22;32204;49.160;8.580;2024-03-06T12:26:05;10.90;99.90
46490;DHT22;32204;49.160;8.580;2024-03-06T12:28:32;10.90;1.00
46490;DHT22;32204;49.160;8.580;2024-03-06T12:30:57;10.60;19.20
46490;DHT22;32204;49.160;8.580;2024-03-06T12:33:27;10.60;99.90
46490;DHT22;32204;49.160;8.580;2024-03-06T12:36:03;10.60;99.90
46490;DHT22;32204;49.160;8.580;2024-03-06T12:38:29;10.50;99.90
46490;DHT22;32204;49.160;8.580;2024-03-06T12:40:55;10.50;1.00
46490;DHT22;32204;49.160;8.580;2024-03-06T12:43:21;10.50;1.00
46490;DHT22;32204;49.160;8.580;2024-03-06T12:45:47;10.60;42.50
46490;DHT22;32204;49.160;8.580;2024-03-06T12:48:14;10.70;1.00
46490;DHT22;32204;49.160;8.580;2024-03-06T12:50:39;10.70;99.90
46490;DHT22;32204;49.160;8.580;2024-03-06T12:53:05;10.50;99.90
46490;DHT22;32204;49.160;8.580;2024-03-06T12:55:33;10.50;1.00
46490;DHT22;32204;49.160;8.580;2024-03-06T12:57:59;10.40;1.00
46490;DHT22;32204;49.160;8.580;2024-03-06T13:00:24;10.40;99.90
46490;DHT22;32204;49.160;8.580;2024-03-06T13:02:50;10.50;99.90
46490;DHT22;32204;49.160;8.580;2024-03-06T13:05:16;10.40;1.00
46490;DHT22;32204;49.160;8.580;2024-03-06T13:07:43;10.30;99.90
46490;DHT22;32204;49.160;8.580;2024-03-06T13:10:10;10.40;1.00
46490;DHT22;32204;49.160;8.580;2024-03-06T13:12:39;10.50;99.90
46490;DHT22;32204;49.160;8.580;2024-03-06T13:15:05;10.50;93.60
46490;DHT22;32204;49.160;8.580;2024-03-06T13:17:33;10.50;99.90
46490;DHT22;32204;49.160;8.580;2024-03-06T13:19:58;10.50;99.90
46490;DHT22;32204;49.160;8.580;2024-03-06T13:22:24;10.50;99.90
46490;DHT22;32204;49.160;8.580;2024-03-06T13:24:50;10.50;1.00
46490;DHT22;32204;49.160;8.580;2024-03-06T13:27:17;10.50;99.90
46490;DHT22;32204;49.160;8.580;2024-03-06T13:29:42;10.50;37.30
46490;DHT22;32204;49.160;8.580;2024-03-06T13:32:08;10.50;99.90
46490;DHT22;32204;49.160;8.580;2024-03-06T13:34:34;10.40;99.90
46490;DHT22;32204;49.160;8.580;2024-03-06T13:36:59;10.40;1.00
46490;DHT22;32204;49.160;8.580;2024-03-06T13:39:25;10.40;99.90
46490;DHT22;32204;49.160;8.580;2024-03-06T13:41:51;10.50;99.90
46490;DHT22;32204;49.160;8.580;2024-03-06T13:44:18;10.60;99.90
46490;DHT22;32204;49.160;8.580;2024-03-06T13:46:44;10.50;99.90
46490;DHT22;32204;49.160;8.580;2024-03-06T13:49:36;10.50;1.00
46490;DHT22;32204;49.160;8.580;2024-03-06T13:52:02;10.50;99.90
46490;DHT22;32204;49.160;8.580;2024-03-06T13:54:27;10.50;1.00
46490;DHT22;32204;49.160;8.580;2024-03-06T13:56:53;10.50;1.00
46490;DHT22;32204;49.160;8.580;2024-03-06T13:59:35;10.40;1.00
46490;DHT22;32204;49.160;8.580;2024-03-06T14:02:01;10.40;99.90
46490;DHT22;32204;49.160;8.580;2024-03-06T14:04:28;10.40;99.90
46490;DHT22;32204;49.160;8.580;2024-03-06T14:06:54;10.40;99.90
46490;DHT22;32204;49.160;8.580;2024-03-06T14:09:20;10.40;99.90
46490;DHT22;32204;49.160;8.580;2024-03-06T14:11:45;10.30;99.90
46490;DHT22;32204;49.160;8.580;2024-03-06T14:14:11;10.40;99.90
46490;DHT22;32204;49.160;8.580;2024-03-06T14:16:39;10.30;99.90
46490;DHT22;32204;49.160;8.580;2024-03-06T14:19:05;10.30;99.90
46490;DHT22;32204;49.160;8.580;2024-03-06T14:21:31;10.30;99.90
46490;DHT22;32204;49.160;8.580;2024-03-06T14:23:59;10.40;1.00
46490;DHT22;32204;49.160;8.580;2024-03-06T14:26:25;10.40;1.00
46490;DHT22;32204;49.160;8.580;2024-03-06T14:28:50;10.50;1.00
46490;DHT22;32204;49.160;8.580;2024-03-06T14:31:16;10.60;99.90
46490;DHT22;32204;49.160;8.580;2024-03-06T14:33:41;10.50;99.90
46490;DHT22;32204;49.160;8.580;2024-03-06T14:36:07;10.40;99.90
46490;DHT22;32204;49.160;8.580;2024-03-06T14:38:33;10.30;99.90
46490;DHT22;32204;49.160;8.580;2024-03-06T14:40:59;10.30;52.50
46490;DHT22;32204;49.160;8.580;2024-03-06T14:43:24;10.20;99.90
46490;DHT22;32204;49.160;8.580;2024-03-06T14:45:51;10.20;1.00
46490;DHT22;32204;49.160;8.580;2024-03-06T14:48:16;10.20;74.90
46490;DHT22;32204;49.160;8.580;2024-03-06T14:50:43;10.20;59.50
46490;DHT22;32204;49.160;8.580;2024-03-06T14:53:08;10.10;15.50
46490;DHT22;32204;49.160;8.580;2024-03-06T14:55:34;10.10;91.20
46490;DHT22;32204;49.160;8.580;2024-03-06T14:58:00;10.00;77.00
46490;DHT22;32204;49.160;8.580;2024-03-06T15:00:26;10.00;99.90
46490;DHT22;32204;49.160;8.580;2024-03-06T15:02:52;10.10;99.90
46490;DHT22;32204;49.160;8.580;2024-03-06T15:05:17;10.00;99.90
46490;DHT22;32204;49.160;8.580;2024-03-06T15:07:43;10.00;99.90
46490;DHT22;32204;49.160;8.580;2024-03-06T15:10:09;10.10;99.90
46490;DHT22;32204;49.160;8.580;2024-03-06T15:12:35;10.10;99.90
46490;DHT22;32204;49.160;8.580;2024-03-06T15:15:02;10.20;99.90
46490;DHT22;32204;49.160;8.580;2024-03-06T15:17:29;10.20;99.90
46490;DHT22;32204;49.160;8.580;2024-03-06T15:19:57;10.20;99.90
46490;DHT22;32204;49.160;8.580;2024-03-06T15:22:22;10.20;99.90
46490;DHT22;32204;49.160;8.580;2024-03-06T15:24:48;10.30;99.90
46490;DHT22;32204;49.160;8.580;2024-03-06T15:27:16;10.30;99.90
46490;DHT22;32204;49.160;8.580;2024-03-06T15:29:42;10.30;99.90
46490;DHT22;32204;49.160;8.580;2024-03-06T15:32:09;10.30;99.90
46490;DHT22;32204;49.160;8.580;2024-03-06T15:34:36;10.30;65.90
46490;DHT22;32204;49.160;8.580;2024-03-06T15:37:01;10.30;99.90
46490;DHT22;32204;49.160;8.580;2024-03-06T15:39:28;10.20;99.90
46490;DHT22;32204;49.160;8.580;2024-03-06T15:41:54;10.10;99.90
46490;DHT22;32204;49.160;8.580;2024-03-06T15:44:22;10.10;99.90
46490;DHT22;32204;49.160;8.580;2024-03-06T15:46:48;10.10;99.90
46490;DHT22;32204;49.160;8.580;2024-03-06T15:49:23;10.10;99.90
46490;DHT22;32204;49.160;8.580;2024-03-06T15:51:52;10.10;99.90
46490;DHT22;32204;49.160;8.580;2024-03-06T15:54:21;10.00;99.90
46490;DHT22;32204;49.160;8.580;2024-03-06T15:56:47;10.00;99.90
46490;DHT22;32204;49.160;8.580;2024-03-06T15:59:13;10.00;99.90
46490;DHT22;32204;49.160;8.580;2024-03-06T16:01:38;10.00;1.00